createdAt,value
2023-12-08T00:00:37.233Z,17.40
2023-12-08T00:03:04.553Z,18.23
2023-12-08T00:05:31.669Z,17.58
2023-12-08T00:07:58.824Z,17.60
2023-12-08T00:10:25.908Z,16.65
2023-12-08T00:12:53.018Z,18.30
2023-12-08T00:15:20.300Z,17.83
2023-12-08T00:17:47.487Z,16.45
2023-12-08T00:20:14.600Z,17.13
2023-12-08T00:22:41.629Z,16.95
2023-12-08T00:25:09.378Z,16.63
2023-12-08T00:27:37.154Z,17.00
2023-12-08T00:30:06.685Z,16.80
2023-12-08T00:32:33.857Z,19.50
2023-12-08T00:35:01.998Z,18.33
2023-12-08T00:37:29.838Z,18.52
2023-12-08T00:39:56.968Z,18.00
2023-12-08T00:42:24.142Z,23.40
2023-12-08T00:44:51.259Z,19.70
2023-12-08T00:47:18.339Z,19.48
2023-12-08T00:49:45.452Z,18.48
2023-12-08T00:52:12.558Z,19.58
2023-12-08T00:54:39.678Z,19.77
2023-12-08T00:57:06.792Z,19.63
2023-12-08T00:59:34.017Z,19.92
2023-12-08T01:02:01.054Z,18.92
2023-12-08T01:04:28.177Z,18.90
2023-12-08T01:06:55.189Z,19.05
2023-12-08T01:09:22.322Z,21.27
2023-12-08T01:11:49.383Z,18.70
2023-12-08T01:14:16.569Z,20.20
2023-12-08T01:16:44.196Z,19.35
2023-12-08T01:19:12.839Z,19.63
2023-12-08T01:21:41.413Z,19.48
2023-12-08T01:24:09.406Z,20.23
2023-12-08T01:26:36.542Z,21.95
2023-12-08T01:29:03.562Z,21.55
2023-12-08T01:31:30.743Z,21.00
2023-12-08T01:33:58.567Z,20.30
2023-12-08T01:36:41.600Z,19.77
2023-12-08T01:39:11.841Z,20.88
2023-12-08T01:41:39.529Z,19.85
2023-12-08T01:44:06.698Z,20.23
2023-12-08T01:46:35.196Z,20.88
2023-12-08T01:49:02.497Z,19.35
2023-12-08T01:51:29.716Z,22.52
2023-12-08T01:53:57.080Z,20.50
2023-12-08T01:56:24.471Z,21.55
2023-12-08T01:58:52.269Z,20.77
2023-12-08T02:01:19.833Z,21.20
2023-12-08T02:03:49.941Z,20.70
2023-12-08T02:06:18.891Z,20.80
2023-12-08T02:08:49.696Z,21.30
2023-12-08T02:11:18.290Z,21.83
2023-12-08T02:13:46.322Z,20.35
2023-12-08T02:16:51.662Z,21.08
2023-12-08T02:19:20.021Z,21.00
2023-12-08T02:21:47.756Z,20.80
2023-12-08T02:24:15.141Z,20.63
2023-12-08T02:26:42.243Z,20.30
2023-12-08T02:29:10.824Z,21.35
2023-12-08T02:31:51.527Z,21.52
2023-12-08T02:34:20.696Z,20.73
2023-12-08T02:36:49.114Z,22.05
2023-12-08T02:39:17.888Z,21.10
2023-12-08T02:41:45.519Z,22.70
2023-12-08T02:44:12.675Z,21.98
2023-12-08T02:46:40.990Z,21.27
2023-12-08T02:49:08.198Z,22.25
2023-12-08T02:51:35.305Z,21.13
2023-12-08T02:54:02.332Z,21.58
2023-12-08T02:56:29.400Z,20.67
2023-12-08T02:58:56.499Z,22.48
2023-12-08T03:01:23.590Z,23.23
2023-12-08T03:03:50.841Z,22.08
2023-12-08T03:06:17.997Z,22.27
2023-12-08T03:08:45.105Z,21.63
2023-12-08T03:11:12.131Z,21.50
2023-12-08T03:13:39.139Z,21.00
2023-12-08T03:16:07.137Z,22.45
2023-12-08T03:18:34.473Z,22.15
2023-12-08T03:21:01.554Z,21.98
2023-12-08T03:23:28.987Z,22.60
2023-12-08T03:25:56.098Z,21.60
2023-12-08T03:28:23.217Z,21.98
2023-12-08T03:30:50.226Z,21.60
2023-12-08T03:33:17.554Z,23.75
2023-12-08T03:35:44.637Z,21.60
2023-12-08T03:38:11.676Z,23.10
2023-12-08T03:40:38.866Z,21.85
2023-12-08T03:43:06.077Z,24.13
2023-12-08T03:45:33.651Z,20.67
2023-12-08T03:48:00.920Z,21.10
2023-12-08T03:50:28.129Z,21.88
2023-12-08T03:52:56.186Z,20.25
2023-12-08T03:55:23.625Z,21.17
2023-12-08T03:57:51.283Z,23.00
2023-12-08T04:00:18.951Z,22.38
2023-12-08T04:02:46.006Z,22.00
2023-12-08T04:05:13.200Z,23.02
2023-12-08T04:07:40.812Z,21.73
2023-12-08T04:10:08.272Z,24.15
2023-12-08T04:12:35.427Z,22.58
2023-12-08T04:15:02.649Z,23.13
2023-12-08T04:17:30.100Z,24.20
2023-12-08T04:19:57.358Z,22.60
2023-12-08T04:22:24.555Z,22.70
2023-12-08T04:24:51.626Z,22.40
2023-12-08T04:27:18.747Z,23.05
2023-12-08T04:29:45.923Z,23.13
2023-12-08T04:32:12.983Z,24.20
2023-12-08T04:34:40.243Z,23.13
2023-12-08T04:37:07.511Z,24.55
2023-12-08T04:39:35.097Z,23.40
2023-12-08T04:42:02.234Z,21.95
2023-12-08T04:44:29.566Z,23.48
2023-12-08T04:46:56.865Z,24.40
2023-12-08T04:49:24.022Z,23.27
2023-12-08T04:51:51.329Z,23.40
2023-12-08T04:54:18.752Z,23.63
2023-12-08T04:56:45.920Z,24.30
2023-12-08T04:59:12.951Z,24.45
2023-12-08T05:01:40.054Z,25.85
2023-12-08T05:04:07.186Z,25.85
2023-12-08T05:06:34.397Z,25.38
2023-12-08T05:09:01.504Z,25.98
2023-12-08T05:11:28.730Z,23.55
2023-12-08T05:13:55.900Z,25.23
2023-12-08T05:16:23.398Z,24.85
2023-12-08T05:18:50.597Z,23.88
2023-12-08T05:21:17.662Z,23.65
2023-12-08T05:23:44.701Z,24.90
2023-12-08T05:26:12.145Z,23.42
2023-12-08T05:28:39.277Z,23.85
2023-12-08T05:31:06.729Z,24.25
2023-12-08T05:33:33.979Z,25.05
2023-12-08T05:36:02.980Z,23.73
2023-12-08T05:38:31.651Z,26.67
2023-12-08T05:40:58.650Z,24.05
2023-12-08T05:43:25.997Z,24.90
2023-12-08T05:45:53.037Z,26.25
2023-12-08T05:48:20.443Z,24.40
2023-12-08T05:50:48.254Z,25.35
2023-12-08T05:53:15.503Z,26.05
2023-12-08T05:55:42.643Z,28.60
2023-12-08T05:58:09.852Z,24.55
2023-12-08T06:00:36.938Z,25.88
2023-12-08T06:03:04.208Z,12.98
2023-12-08T06:05:31.274Z,24.25
2023-12-08T06:07:58.522Z,26.67
2023-12-08T06:10:26.108Z,26.15
2023-12-08T06:12:54.012Z,24.05
2023-12-08T06:15:21.163Z,26.13
2023-12-08T06:17:48.427Z,25.55
2023-12-08T06:20:15.984Z,27.20
2023-12-08T06:22:43.662Z,25.73
2023-12-08T06:25:10.840Z,25.40
2023-12-08T06:27:38.432Z,25.67
2023-12-08T06:30:08.960Z,25.20
2023-12-08T06:32:36.532Z,25.80
2023-12-08T06:35:03.952Z,25.25
2023-12-08T06:37:30.926Z,24.85
2023-12-08T06:39:57.939Z,26.00
2023-12-08T06:42:24.944Z,27.27
2023-12-08T06:44:52.022Z,26.70
2023-12-08T06:47:19.102Z,26.75
2023-12-08T06:49:46.344Z,26.00
2023-12-08T06:52:13.398Z,26.02
2023-12-08T06:54:40.690Z,25.73
2023-12-08T06:57:09.590Z,28.55
2023-12-08T06:59:36.707Z,26.77
2023-12-08T07:02:03.985Z,25.92
2023-12-08T07:04:31.284Z,26.30
2023-12-08T07:06:58.547Z,25.85
2023-12-08T07:09:26.154Z,26.33
2023-12-08T07:11:53.426Z,26.73
2023-12-08T07:14:21.698Z,26.55
2023-12-08T07:16:48.849Z,27.63
2023-12-08T07:19:16.114Z,27.00
2023-12-08T07:21:46.546Z,26.40
2023-12-08T07:24:13.669Z,28.15
2023-12-08T07:26:40.845Z,26.45
2023-12-08T07:29:08.194Z,28.48
2023-12-08T07:31:35.325Z,26.92
2023-12-08T07:34:03.151Z,26.50
2023-12-08T07:36:30.361Z,26.33
2023-12-08T07:38:57.813Z,27.08
2023-12-08T07:41:25.094Z,27.17
2023-12-08T07:43:55.933Z,27.55
2023-12-08T07:46:24.937Z,25.00
2023-12-08T07:48:52.218Z,28.25
2023-12-08T07:51:20.375Z,26.77
2023-12-08T07:53:47.474Z,26.83
2023-12-08T07:56:14.652Z,28.33
2023-12-08T07:58:41.793Z,24.60
2023-12-08T08:01:09.000Z,26.92
2023-12-08T08:03:36.204Z,26.98
2023-12-08T08:06:03.613Z,26.25
2023-12-08T08:08:30.861Z,26.83
2023-12-08T08:10:57.986Z,26.45
2023-12-08T08:13:25.022Z,25.23
2023-12-08T08:15:52.106Z,25.88
2023-12-08T08:18:19.360Z,26.00
2023-12-08T08:20:46.650Z,27.65
2023-12-08T08:23:13.748Z,26.13
2023-12-08T08:25:40.774Z,25.25
2023-12-08T08:28:08.315Z,25.23
2023-12-08T08:30:35.338Z,25.05
2023-12-08T08:33:02.633Z,25.08
2023-12-08T08:35:29.947Z,25.23
2023-12-08T08:37:57.650Z,26.15
2023-12-08T08:40:24.779Z,25.77
2023-12-08T08:42:52.742Z,25.13
2023-12-08T08:45:20.520Z,24.98
2023-12-08T08:47:47.888Z,23.52
2023-12-08T08:50:15.345Z,27.15
2023-12-08T08:52:42.960Z,26.50
2023-12-08T08:55:11.697Z,26.05
2023-12-08T08:57:38.775Z,26.55
2023-12-08T09:00:08.977Z,25.77
2023-12-08T09:02:36.144Z,24.95
2023-12-08T09:05:04.005Z,25.75
2023-12-08T09:07:31.177Z,26.17
2023-12-08T09:09:59.150Z,23.92
2023-12-08T09:12:26.787Z,25.83
2023-12-08T09:14:54.195Z,25.27
2023-12-08T09:17:21.431Z,24.88
2023-12-08T09:19:48.478Z,25.08
2023-12-08T09:22:15.827Z,25.50
2023-12-08T09:24:42.917Z,25.17
2023-12-08T09:27:10.773Z,24.98
2023-12-08T09:29:38.023Z,25.23
2023-12-08T09:32:05.865Z,25.77
2023-12-08T09:34:34.821Z,25.63
2023-12-08T09:37:26.017Z,26.30
2023-12-08T09:39:49.133Z,24.27
2023-12-08T09:42:42.871Z,24.10
2023-12-08T09:45:13.778Z,24.70
2023-12-08T09:47:48.223Z,24.85
2023-12-08T09:50:16.690Z,24.92
2023-12-08T09:52:47.417Z,25.10
2023-12-08T09:55:15.479Z,25.65
2023-12-08T09:57:48.031Z,26.45
2023-12-08T10:00:16.538Z,26.52
2023-12-08T10:02:44.224Z,26.35
2023-12-08T10:05:12.505Z,25.35
2023-12-08T10:07:45.157Z,26.05
2023-12-08T10:10:12.708Z,28.58
2023-12-08T10:12:41.561Z,26.83
2023-12-08T10:15:13.563Z,27.40
2023-12-08T10:17:51.164Z,27.88
2023-12-08T10:20:22.807Z,26.00
2023-12-08T10:23:00.512Z,29.38
2023-12-08T10:25:29.659Z,26.85
2023-12-08T10:27:57.951Z,28.58
2023-12-08T10:30:28.186Z,27.88
2023-12-08T10:32:56.136Z,30.30
2023-12-08T10:35:23.637Z,30.05
2023-12-08T10:37:51.300Z,30.15
2023-12-08T10:40:19.993Z,29.73
2023-12-08T10:42:49.584Z,33.25
2023-12-08T10:45:17.499Z,29.98
2023-12-08T10:47:46.242Z,32.53
2023-12-08T10:50:14.042Z,35.88
2023-12-08T10:52:42.377Z,33.00
2023-12-08T10:55:11.663Z,40.42
2023-12-08T10:57:39.729Z,39.08
2023-12-08T11:00:13.082Z,42.42
2023-12-08T11:02:44.543Z,41.22
2023-12-08T11:05:18.793Z,45.45
2023-12-08T11:07:48.567Z,39.85
2023-12-08T11:10:17.062Z,40.55
2023-12-08T11:12:55.269Z,44.63
2023-12-08T11:15:23.705Z,48.22
2023-12-08T11:18:24.462Z,42.92
2023-12-08T11:20:52.628Z,46.60
2023-12-08T11:23:20.922Z,52.03
2023-12-08T11:26:07.520Z,47.92
2023-12-08T11:28:55.749Z,49.50
2023-12-08T11:31:53.441Z,52.03
2023-12-08T11:34:55.465Z,54.60
2023-12-08T11:37:26.354Z,45.95
2023-12-08T11:40:07.384Z,53.80
2023-12-08T11:42:35.663Z,43.72
2023-12-08T11:45:03.008Z,51.50
2023-12-08T11:47:32.184Z,51.00
2023-12-08T11:49:59.634Z,44.50
2023-12-08T11:52:34.848Z,49.33
2023-12-08T11:55:31.313Z,45.05
2023-12-08T11:58:07.669Z,47.20
2023-12-08T12:00:40.468Z,53.95
2023-12-08T12:03:09.962Z,49.00
2023-12-08T12:05:37.580Z,48.95
2023-12-08T12:08:07.212Z,46.15
2023-12-08T12:10:35.554Z,47.15
2023-12-08T12:13:14.718Z,50.38
2023-12-08T12:15:43.370Z,44.80
2023-12-08T12:18:12.548Z,50.38
2023-12-08T12:20:40.682Z,53.65
2023-12-08T12:23:08.293Z,51.55
2023-12-08T12:25:35.510Z,52.13
2023-12-08T12:28:02.716Z,49.67
2023-12-08T12:30:29.909Z,46.83
2023-12-08T12:32:58.746Z,49.22
2023-12-08T12:35:26.424Z,50.00
2023-12-08T12:37:56.794Z,52.60
2023-12-08T12:40:25.888Z,57.63
2023-12-08T12:42:53.055Z,62.47
2023-12-08T12:45:28.854Z,58.20
2023-12-08T12:48:09.019Z,61.63
2023-12-08T12:50:51.667Z,59.03
2023-12-08T12:53:19.435Z,49.38
2023-12-08T12:55:48.040Z,61.85
2023-12-08T12:58:25.310Z,69.82
2023-12-08T13:00:53.273Z,51.10
2023-12-08T13:03:23.716Z,53.47
2023-12-08T13:05:57.911Z,56.53
2023-12-08T13:08:25.505Z,75.60
2023-12-08T13:10:57.933Z,54.67
2023-12-08T13:13:25.174Z,74.80
2023-12-08T13:15:52.429Z,61.83
2023-12-08T13:18:19.930Z,74.35
2023-12-08T13:20:47.352Z,76.85
2023-12-08T13:23:14.578Z,77.88
2023-12-08T13:25:41.751Z,72.55
2023-12-08T13:28:09.704Z,81.03
2023-12-08T13:30:36.984Z,63.25
2023-12-08T13:33:07.077Z,60.55
2023-12-08T13:35:35.767Z,76.60
2023-12-08T13:38:02.884Z,84.18
2023-12-08T13:40:30.411Z,83.63
2023-12-08T13:42:58.250Z,68.70
2023-12-08T13:45:26.500Z,82.70
2023-12-08T13:47:53.944Z,64.63
2023-12-08T13:50:21.284Z,81.15
2023-12-08T13:52:48.498Z,109.35
2023-12-08T13:55:15.863Z,88.60
2023-12-08T13:57:42.940Z,83.45
2023-12-08T14:00:11.199Z,61.72
2023-12-08T14:02:38.708Z,68.10
2023-12-08T14:05:06.039Z,83.20
2023-12-08T14:07:33.316Z,66.22
2023-12-08T14:10:00.470Z,91.90
2023-12-08T14:12:28.296Z,127.03
2023-12-08T14:14:55.586Z,123.43
2023-12-08T14:17:22.797Z,89.35
2023-12-08T14:19:50.069Z,97.28
2023-12-08T14:22:17.429Z,110.63
2023-12-08T14:24:44.589Z,97.50
2023-12-08T14:27:11.758Z,114.13
2023-12-08T14:29:38.978Z,131.13
2023-12-08T14:32:06.287Z,166.98
2023-12-08T14:34:33.512Z,139.20
2023-12-08T14:37:00.862Z,75.72
2023-12-08T14:39:29.525Z,305.65
2023-12-08T14:41:57.102Z,121.13
2023-12-08T14:44:24.245Z,153.98
2023-12-08T14:46:53.971Z,180.30
2023-12-08T14:49:21.903Z,62.92
2023-12-08T14:51:49.332Z,99.47
2023-12-08T14:54:22.763Z,135.88
2023-12-08T14:56:53.880Z,97.65
2023-12-08T14:59:21.147Z,55.70
2023-12-08T15:01:48.371Z,95.68
2023-12-08T15:04:15.846Z,107.88
2023-12-08T15:06:43.126Z,115.65
2023-12-08T15:09:10.335Z,84.55
2023-12-08T15:11:37.642Z,128.68
2023-12-08T15:14:04.954Z,147.43
2023-12-08T15:16:32.192Z,153.30
2023-12-08T15:18:59.374Z,126.80
2023-12-08T15:21:29.181Z,110.28
2023-12-08T15:23:59.133Z,113.53
2023-12-08T15:26:27.070Z,119.85
2023-12-08T15:28:54.271Z,207.60
2023-12-08T15:31:21.479Z,94.85
2023-12-08T15:33:48.880Z,172.00
2023-12-08T15:36:16.267Z,174.98
2023-12-08T15:38:45.176Z,152.93
2023-12-08T15:41:12.620Z,209.07
2023-12-08T15:43:40.478Z,414.42
2023-12-08T15:46:08.059Z,276.85
2023-12-08T15:48:36.132Z,117.07
2023-12-08T15:51:10.614Z,162.77
2023-12-08T15:53:37.881Z,177.65
2023-12-08T15:56:05.436Z,90.20
2023-12-08T15:58:32.545Z,252.77
2023-12-08T16:00:59.649Z,129.85
2023-12-08T16:03:26.798Z,229.30
2023-12-08T16:05:54.079Z,225.27
2023-12-08T16:08:21.192Z,214.80
2023-12-08T16:10:48.314Z,187.13
2023-12-08T16:13:15.425Z,144.05
2023-12-08T16:15:42.697Z,332.60
2023-12-08T16:18:10.124Z,222.35
2023-12-08T16:20:37.693Z,357.50
2023-12-08T16:23:05.700Z,284.55
2023-12-08T16:25:32.866Z,272.40
2023-12-08T16:27:59.908Z,143.35
2023-12-08T16:30:27.030Z,249.90
2023-12-08T16:32:54.324Z,451.38
2023-12-08T16:35:21.759Z,349.83
2023-12-08T16:37:48.757Z,336.65
2023-12-08T16:40:15.988Z,210.77
2023-12-08T16:42:43.114Z,244.35
2023-12-08T16:45:10.740Z,244.60
2023-12-08T16:47:38.191Z,195.90
2023-12-08T16:50:06.046Z,191.70
2023-12-08T16:52:33.150Z,230.43
2023-12-08T16:55:00.481Z,264.33
2023-12-08T16:57:27.568Z,294.73
2023-12-08T16:59:54.738Z,227.60
2023-12-08T17:02:21.941Z,297.90
2023-12-08T17:04:49.202Z,289.58
2023-12-08T17:07:16.446Z,350.05
2023-12-08T17:09:44.565Z,432.98
2023-12-08T17:12:11.892Z,240.07
2023-12-08T17:14:39.130Z,373.80
2023-12-08T17:17:06.213Z,341.30
2023-12-08T17:19:33.459Z,408.88
2023-12-08T17:22:00.823Z,295.10
2023-12-08T17:24:27.899Z,357.08
2023-12-08T17:26:56.411Z,343.83
2023-12-08T17:29:23.783Z,314.98
2023-12-08T17:31:51.039Z,370.10
2023-12-08T17:34:22.560Z,519.45
2023-12-08T17:36:51.872Z,400.85
2023-12-08T17:39:19.286Z,356.55
2023-12-08T17:41:46.926Z,466.13
2023-12-08T17:44:14.078Z,300.30
2023-12-08T17:46:41.675Z,276.60
2023-12-08T17:49:09.136Z,444.08
2023-12-08T17:51:36.547Z,432.33
2023-12-08T17:54:04.125Z,386.75
2023-12-08T17:56:31.353Z,282.42
2023-12-08T17:58:58.516Z,325.13
2023-12-08T18:01:25.706Z,335.10
2023-12-08T18:03:52.982Z,377.27
2023-12-08T18:06:22.173Z,365.15
2023-12-08T18:08:49.476Z,518.70
2023-12-08T18:11:26.754Z,407.45
2023-12-08T18:13:55.041Z,448.02
2023-12-08T18:16:26.626Z,393.27
2023-12-08T18:18:54.958Z,357.98
2023-12-08T18:21:29.636Z,236.07
2023-12-08T18:24:00.133Z,246.23
2023-12-08T18:26:30.409Z,293.00
2023-12-08T18:29:08.185Z,317.42
2023-12-08T18:31:41.018Z,342.02
2023-12-08T18:34:09.286Z,276.42
2023-12-08T18:36:36.847Z,244.63
2023-12-08T18:39:05.348Z,274.30
2023-12-08T18:41:33.900Z,309.25
2023-12-08T18:44:01.565Z,269.85
2023-12-08T18:46:28.873Z,295.38
2023-12-08T18:48:59.048Z,224.98
2023-12-08T18:51:29.246Z,167.15
2023-12-08T18:53:57.938Z,186.60
2023-12-08T18:56:25.353Z,147.98
2023-12-08T18:58:55.168Z,170.25
2023-12-08T19:01:24.888Z,163.73
2023-12-08T19:03:52.738Z,162.43
2023-12-08T19:06:20.792Z,150.93
2023-12-08T19:08:48.418Z,130.68
2023-12-08T19:11:16.008Z,149.48
2023-12-08T19:13:44.946Z,110.68
2023-12-08T19:16:12.335Z,120.13
2023-12-08T19:18:39.553Z,113.10
2023-12-08T19:21:08.809Z,101.25
2023-12-08T19:23:36.067Z,109.35
2023-12-08T19:26:05.645Z,104.90
2023-12-08T19:28:33.060Z,95.63
2023-12-08T19:31:00.247Z,101.10
2023-12-08T19:33:27.778Z,102.60
2023-12-08T19:35:54.943Z,101.85
2023-12-08T19:38:22.124Z,94.95
2023-12-08T19:40:49.193Z,86.70
2023-12-08T19:43:16.492Z,79.75
2023-12-08T19:45:45.426Z,92.03
2023-12-08T19:48:16.991Z,91.00
2023-12-08T19:50:44.728Z,94.50
2023-12-08T19:53:12.302Z,92.18
2023-12-08T19:55:39.432Z,88.15
2023-12-08T19:58:06.729Z,81.70
2023-12-08T20:00:33.955Z,85.05
2023-12-08T20:03:01.333Z,91.72
2023-12-08T20:05:28.557Z,95.65
2023-12-08T20:07:55.880Z,88.50
2023-12-08T20:10:23.678Z,96.20
2023-12-08T20:12:50.877Z,80.10
2023-12-08T20:15:27.369Z,90.95
2023-12-08T20:17:56.384Z,93.82
2023-12-08T20:20:23.593Z,84.50
2023-12-08T20:22:50.615Z,85.25
2023-12-08T20:25:18.641Z,82.70
2023-12-08T20:27:47.243Z,82.97
2023-12-08T20:30:16.025Z,88.15
2023-12-08T20:32:43.243Z,83.47
2023-12-08T20:35:10.446Z,92.07
2023-12-08T20:37:37.641Z,88.60
2023-12-08T20:40:05.448Z,82.00
2023-12-08T20:42:32.945Z,86.63
2023-12-08T20:45:00.215Z,90.20
2023-12-08T20:47:27.735Z,84.32
2023-12-08T20:49:55.946Z,95.47
2023-12-08T20:52:23.148Z,80.72
2023-12-08T20:54:50.467Z,83.88
2023-12-08T20:57:17.854Z,80.70
2023-12-08T20:59:45.469Z,73.15
2023-12-08T21:02:13.954Z,82.20
2023-12-08T21:04:41.065Z,80.32
2023-12-08T21:07:08.536Z,76.78
2023-12-08T21:09:36.058Z,82.25
2023-12-08T21:12:03.423Z,83.05
2023-12-08T21:14:30.632Z,73.60
2023-12-08T21:16:57.836Z,80.40
2023-12-08T21:19:26.082Z,79.53
2023-12-08T21:21:54.370Z,81.53
2023-12-08T21:24:21.486Z,77.43
2023-12-08T21:26:48.678Z,77.53
2023-12-08T21:29:16.006Z,85.07
2023-12-08T21:31:47.473Z,72.70
2023-12-08T21:34:16.010Z,74.20
2023-12-08T21:36:43.757Z,82.40
2023-12-08T21:39:11.602Z,72.03
2023-12-08T21:41:38.795Z,76.95
2023-12-08T21:44:07.703Z,69.20
2023-12-08T21:46:35.012Z,70.82
2023-12-08T21:49:02.386Z,63.63
2023-12-08T21:51:30.849Z,76.38
2023-12-08T21:53:58.706Z,62.58
2023-12-08T21:56:29.919Z,64.47
2023-12-08T21:59:00.192Z,69.97
2023-12-08T22:01:27.850Z,65.80
2023-12-08T22:03:58.205Z,66.78
2023-12-08T22:06:26.701Z,79.18
2023-12-08T22:08:54.062Z,60.03
2023-12-08T22:11:21.307Z,61.25
2023-12-08T22:13:48.551Z,67.03
2023-12-08T22:16:15.758Z,59.65
2023-12-08T22:18:43.086Z,66.53
2023-12-08T22:21:11.191Z,65.88
2023-12-08T22:23:38.904Z,53.85
2023-12-08T22:26:06.431Z,61.42
2023-12-08T22:28:33.956Z,61.13
2023-12-08T22:31:01.198Z,71.38
2023-12-08T22:33:28.485Z,58.22
2023-12-08T22:35:55.894Z,66.28
2023-12-08T22:38:23.167Z,62.75
2023-12-08T22:40:50.197Z,70.53
2023-12-08T22:43:18.427Z,61.05
2023-12-08T22:45:45.446Z,67.68
2023-12-08T22:48:12.711Z,52.45
2023-12-08T22:50:47.064Z,56.53
2023-12-08T22:53:17.512Z,58.92
2023-12-08T22:55:44.735Z,56.83
2023-12-08T22:58:11.978Z,56.97
2023-12-08T23:00:39.352Z,57.13
2023-12-08T23:03:06.679Z,60.05
2023-12-08T23:05:34.298Z,52.75
2023-12-08T23:08:01.882Z,58.80
2023-12-08T23:10:29.004Z,51.85
2023-12-08T23:12:56.109Z,49.33
2023-12-08T23:15:23.529Z,51.03
2023-12-08T23:17:50.889Z,57.50
2023-12-08T23:20:18.096Z,49.30
2023-12-08T23:22:45.236Z,59.65
2023-12-08T23:25:12.411Z,55.85
2023-12-08T23:27:39.489Z,52.22
2023-12-08T23:30:07.898Z,57.58
2023-12-08T23:32:35.201Z,54.58
2023-12-08T23:35:05.288Z,53.88
2023-12-08T23:37:32.876Z,51.45
2023-12-08T23:40:00.407Z,50.60
2023-12-08T23:42:27.919Z,50.05
2023-12-08T23:44:55.482Z,56.35
2023-12-08T23:47:22.560Z,54.40
2023-12-08T23:49:49.586Z,53.65
2023-12-08T23:52:16.717Z,51.58
2023-12-08T23:54:43.887Z,57.83
2023-12-08T23:57:11.255Z,50.85
2023-12-08T23:59:38.618Z,55.17
